Time;durP1;ratioP1;P1;durP2;ratioP2;P2;SDS_P1;SDS_P2;PMS_P1;PMS_P2;Temp;Humidity;BMP_temperature;BMP_pressure;BME280_temperature;BME280_humidity;BME280_pressure;Samples;Min_cycle;Max_cycle;Signal;HPM_P1;HPM_P2
2022/02/07 00:03:42;;;;;;;0.80;0.80;;;4.40;99.90;;;;;;4994820;28;20413;-73
2022/02/07 00:06:08;;;;;;;1.00;0.97;;;4.30;99.90;;;;;;4994921;28;20408;-74
2022/02/07 00:08:35;;;;;;;1.20;1.10;;;4.20;99.90;;;;;;4993412;28;20446;-75
2022/02/07 00:11:01;;;;;;;1.67;1.33;;;4.10;99.90;;;;;;4993289;28;20165;-74
2022/02/07 00:13:26;;;;;;;1.10;1.00;;;4.20;99.90;;;;;;4993260;28;20420;-75
2022/02/07 00:15:52;;;;;;;2.40;0.90;;;4.20;99.90;;;;;;4993182;28;20895;-75
2022/02/07 00:18:17;;;;;;;1.27;0.80;;;4.10;99.90;;;;;;4993406;28;20216;-75
2022/02/07 00:20:43;;;;;;;0.80;0.80;;;4.10;99.90;;;;;;4991642;28;20246;-76
2022/02/07 00:23:09;;;;;;;0.60;0.60;;;4.00;99.90;;;;;;4993119;28;20248;-73
2022/02/07 00:25:35;;;;;;;0.70;0.70;;;3.90;99.90;;;;;;4992895;28;20227;-73
2022/02/07 00:28:02;;;;;;;0.60;0.60;;;3.80;99.90;;;;;;4992914;28;20428;-74
2022/02/07 00:30:27;;;;;;;0.70;0.70;;;3.70;99.90;;;;;;4992755;28;20417;-74
2022/02/07 00:32:53;;;;;;;0.97;0.97;;;3.70;99.90;;;;;;4992810;28;20408;-74
2022/02/07 00:35:22;;;;;;;0.70;0.70;;;3.70;99.90;;;;;;4993193;28;20208;-74
2022/02/07 00:37:49;;;;;;;0.70;0.70;;;3.70;99.90;;;;;;4993045;28;20576;-73
2022/02/07 00:42:59;;;;;;;0.70;0.70;;;3.70;99.90;;;;;;4993115;28;20534;-74
2022/02/07 00:48:11;;;;;;;0.70;0.70;;;3.60;99.90;;;;;;4992738;28;20455;-74
2022/02/07 00:50:40;;;;;;;0.60;0.60;;;3.60;99.90;;;;;;4993022;28;20418;-76
2022/02/07 00:53:06;;;;;;;1.27;0.90;;;3.60;99.90;;;;;;4993597;28;20408;-74
2022/02/07 00:55:33;;;;;;;0.70;0.70;;;3.60;99.90;;;;;;4993471;28;20922;-74
2022/02/07 00:57:58;;;;;;;0.70;0.70;;;3.60;99.90;;;;;;4992529;28;20460;-74
2022/02/07 01:00:24;;;;;;;0.70;0.70;;;3.60;99.90;;;;;;4992416;28;20471;-74
2022/02/07 01:02:49;;;;;;;0.60;0.60;;;3.60;99.90;;;;;;4993132;28;20173;-73
2022/02/07 01:05:16;;;;;;;0.60;0.60;;;3.60;99.90;;;;;;4992507;28;20177;-74
2022/02/07 01:07:45;;;;;;;0.73;0.70;;;3.50;99.90;;;;;;4993158;28;20254;-74
2022/02/07 01:10:12;;;;;;;0.70;0.70;;;3.50;99.90;;;;;;4992391;28;20930;-74
2022/02/07 01:12:57;;;;;;;1.10;1.00;;;3.50;99.90;;;;;;4992267;28;20412;-74
2022/02/07 01:15:48;;;;;;;0.70;0.70;;;3.50;99.90;;;;;;4992642;28;20440;-73
2022/02/07 01:21:17;;;;;;;0.80;0.80;;;3.40;99.90;;;;;;4992259;28;20414;-74
2022/02/07 01:24:03;;;;;;;0.83;0.83;;;3.40;99.90;;;;;;4992236;28;20408;-74
2022/02/07 01:51:01;;;;;;;0.70;0.70;;;3.10;99.90;;;;;;4992736;28;20408;-75
2022/02/07 01:53:41;;;;;;;0.70;0.70;;;3.10;99.90;;;;;;4994862;28;20461;-75
2022/02/07 01:56:09;;;;;;;0.93;0.93;;;3.00;99.90;;;;;;4992154;28;20817;-75
2022/02/07 01:58:34;;;;;;;1.17;0.90;;;3.00;99.90;;;;;;4991974;28;20984;-75
2022/02/07 02:01:00;;;;;;;0.70;0.70;;;3.00;99.90;;;;;;4995351;28;20408;-75
2022/02/07 02:03:25;;;;;;;0.80;0.80;;;3.00;99.90;;;;;;4995824;28;20204;-75
2022/02/07 02:05:55;;;;;;;0.70;0.70;;;3.00;99.90;;;;;;4996498;28;20177;-75
2022/02/07 02:08:21;;;;;;;0.70;0.70;;;2.90;99.90;;;;;;4996311;28;20562;-75
2022/02/07 02:10:50;;;;;;;1.57;0.90;;;2.90;99.90;;;;;;4997255;28;20403;-75
2022/02/07 02:13:24;;;;;;;0.80;0.70;;;2.90;99.90;;;;;;4995289;28;20162;-75
2022/02/07 02:16:08;;;;;;;0.70;0.70;;;2.90;99.90;;;;;;4995604;28;20435;-75
2022/02/07 02:18:52;;;;;;;0.90;0.90;;;2.90;99.90;;;;;;4995075;28;20431;-75
2022/02/07 02:22:14;;;;;;;0.90;0.90;;;2.90;99.90;;;;;;4995384;28;20462;-74
2022/02/07 02:37:55;;;;;;;1.67;0.80;;;2.90;99.90;;;;;;4995169;28;20459;-75
2022/02/07 02:45:38;;;;;;;0.60;0.60;;;3.00;99.90;;;;;;4995091;28;20192;-74
2022/02/07 02:48:09;;;;;;;0.70;0.70;;;3.00;99.90;;;;;;4995074;28;20454;-74
2022/02/07 02:50:36;;;;;;;0.80;0.80;;;3.00;99.90;;;;;;4994765;28;20436;-73
2022/02/07 02:53:12;;;;;;;4.83;2.20;;;3.00;99.90;;;;;;4994905;28;20404;-74
2022/02/07 02:55:40;;;;;;;0.60;0.60;;;3.00;99.90;;;;;;4994723;28;20408;-74
2022/02/07 02:58:08;;;;;;;0.87;0.87;;;3.00;99.90;;;;;;4994653;28;20997;-75
2022/02/07 03:00:34;;;;;;;6.20;1.33;;;3.00;99.90;;;;;;4994720;28;20412;-74
2022/02/07 03:03:02;;;;;;;0.70;0.70;;;3.00;99.90;;;;;;4994479;28;20434;-75
2022/02/07 03:05:27;;;;;;;2.40;2.30;;;3.10;99.90;;;;;;4994526;28;20489;-74
2022/02/07 03:07:53;;;;;;;0.73;0.73;;;3.10;99.90;;;;;;4994246;28;20857;-74
2022/02/07 03:10:29;;;;;;;1.57;1.47;;;3.00;99.90;;;;;;4994164;28;20173;-75
2022/02/07 03:13:11;;;;;;;1.43;1.00;;;3.10;99.90;;;;;;4994129;28;20183;-75
2022/02/07 03:18:22;;;;;;;0.90;0.90;;;3.10;99.90;;;;;;4994502;28;20478;-75
2022/02/07 03:20:47;;;;;;;0.70;0.70;;;3.00;99.90;;;;;;4994174;28;20404;-74
2022/02/07 03:23:13;;;;;;;3.23;1.03;;;3.00;99.90;;;;;;4994003;28;20464;-74
2022/02/07 03:25:39;;;;;;;1.37;0.80;;;3.00;99.90;;;;;;4994252;28;20647;-74
2022/02/07 03:28:04;;;;;;;4.00;1.07;;;3.00;99.90;;;;;;4993986;28;20204;-74
2022/02/07 03:30:30;;;;;;;4.13;1.43;;;3.00;99.90;;;;;;4994373;28;20177;-75
2022/02/07 03:32:55;;;;;;;1.37;1.10;;;3.00;99.90;;;;;;4993935;28;20192;-75
2022/02/07 03:35:21;;;;;;;1.13;1.10;;;3.00;99.90;;;;;;4994243;28;20357;-74
2022/02/07 03:37:47;;;;;;;0.93;0.93;;;3.10;99.90;;;;;;4993746;28;20693;-73
2022/02/07 03:40:13;;;;;;;0.70;0.70;;;3.10;99.90;;;;;;4995064;28;20197;-76
2022/02/07 03:42:39;;;;;;;0.93;0.93;;;3.10;99.90;;;;;;4995150;28;20405;-75
2022/02/07 03:45:05;;;;;;;1.30;1.20;;;3.10;99.90;;;;;;4993941;28;20411;-73
2022/02/07 03:47:32;;;;;;;4.50;0.80;;;3.00;99.90;;;;;;4993336;28;20454;-74
2022/02/07 03:49:58;;;;;;;0.60;0.60;;;3.00;99.90;;;;;;4993693;28;20416;-74
2022/02/07 03:52:24;;;;;;;0.70;0.70;;;3.00;99.90;;;;;;4994629;28;20420;-75
2022/02/07 03:54:49;;;;;;;0.80;0.80;;;3.00;99.90;;;;;;5001052;28;20899;-74
2022/02/07 03:57:16;;;;;;;1.10;1.10;;;2.90;99.90;;;;;;5000666;28;20519;-75
2022/02/07 03:59:41;;;;;;;1.10;1.00;;;2.90;99.90;;;;;;4997203;28;20177;-75
2022/02/07 04:02:07;;;;;;;0.80;0.80;;;2.90;99.90;;;;;;4993716;28;20795;-74
2022/02/07 04:04:32;;;;;;;0.70;0.70;;;2.90;99.90;;;;;;4994723;28;20197;-77
2022/02/07 04:06:58;;;;;;;1.20;1.13;;;2.90;99.90;;;;;;4993579;28;20192;-75
2022/02/07 04:09:29;;;;;;;2.93;0.90;;;2.90;99.90;;;;;;4993302;28;20179;-74
2022/02/07 04:12:03;;;;;;;6.20;2.03;;;2.80;99.90;;;;;;4993183;28;20169;-76
2022/02/07 04:14:28;;;;;;;0.90;0.80;;;2.80;99.90;;;;;;4993368;28;20703;-74
2022/02/07 04:16:54;;;;;;;5.30;1.30;;;2.80;99.90;;;;;;4993023;28;20464;-76
2022/02/07 04:19:22;;;;;;;0.87;0.87;;;2.80;99.90;;;;;;4993182;28;20169;-74
2022/02/07 04:21:50;;;;;;;0.70;0.70;;;2.80;99.90;;;;;;4992613;28;20173;-74
2022/02/07 04:24:17;;;;;;;0.80;0.80;;;2.80;99.90;;;;;;4993146;28;20471;-74
2022/02/07 04:26:43;;;;;;;0.80;0.80;;;2.70;99.90;;;;;;4992995;28;20420;-73
2022/02/07 04:29:08;;;;;;;8.63;1.00;;;2.70;99.90;;;;;;4992750;28;20443;-75
2022/02/07 04:31:34;;;;;;;0.70;0.70;;;2.70;99.90;;;;;;4993037;28;20624;-75
2022/02/07 04:33:59;;;;;;;1.13;1.03;;;2.70;99.90;;;;;;4992729;28;20178;-75
2022/02/07 04:36:25;;;;;;;0.97;0.97;;;2.70;99.90;;;;;;4992865;28;20690;-75
2022/02/07 04:38:50;;;;;;;0.83;0.83;;;2.60;99.90;;;;;;4993129;28;20649;-75
2022/02/07 04:41:16;;;;;;;0.70;0.70;;;2.50;99.90;;;;;;4993000;28;20169;-74
2022/02/07 04:43:50;;;;;;;0.70;0.70;;;2.60;99.90;;;;;;4993325;28;20247;-75
2022/02/07 04:46:34;;;;;;;1.30;1.03;;;2.60;99.90;;;;;;4992790;28;20175;-75
2022/02/07 04:52:04;;;;;;;3.43;0.87;;;2.60;99.90;;;;;;4980635;28;20404;-75
2022/02/07 04:57:41;;;;;;;0.80;0.80;;;2.60;99.90;;;;;;4992361;28;20456;-74
2022/02/07 05:13:44;;;;;;;1.53;0.90;;;2.80;99.90;;;;;;4992355;28;20247;-75
2022/02/07 05:16:04;;;;;;;0.80;0.80;;;2.80;99.90;;;;;;4992496;28;20411;-76
2022/02/07 05:18:31;;;;;;;0.70;0.70;;;2.80;99.90;;;;;;4992207;28;20515;-76
2022/02/07 05:20:57;;;;;;;0.70;0.70;;;2.90;99.90;;;;;;4992423;28;20412;-75
2022/02/07 05:23:22;;;;;;;0.70;0.70;;;2.90;99.90;;;;;;4992317;28;20400;-75
2022/02/07 05:25:49;;;;;;;0.80;0.80;;;2.90;99.90;;;;;;4992487;28;20486;-75
2022/02/07 05:28:14;;;;;;;0.70;0.70;;;2.90;99.90;;;;;;4994419;28;20227;-76
2022/02/07 05:30:40;;;;;;;3.17;1.27;;;2.90;99.90;;;;;;4996876;28;20400;-75
2022/02/07 05:33:05;;;;;;;1.90;0.80;;;2.90;99.90;;;;;;4992365;28;20161;-75
2022/02/07 05:35:31;;;;;;;1.57;0.83;;;2.90;99.90;;;;;;4995205;28;20169;-74
2022/02/07 05:37:56;;;;;;;9.97;1.57;;;2.90;99.90;;;;;;4996351;28;20196;-75
2022/02/07 05:40:40;;;;;;;3.23;1.43;;;2.90;99.90;;;;;;4995965;28;20686;-75
2022/02/07 05:43:08;;;;;;;0.70;0.70;;;2.80;99.90;;;;;;4995964;28;20222;-74
2022/02/07 05:45:33;;;;;;;1.60;0.80;;;2.80;99.90;;;;;;4996003;28;20408;-75
2022/02/07 05:47:59;;;;;;;0.70;0.70;;;2.90;99.90;;;;;;5017631;23;20495;-70
2022/02/07 05:50:24;;;;;;;1.73;1.00;;;2.90;99.90;;;;;;4995349;28;20180;-69
2022/02/07 05:52:49;;;;;;;6.23;1.37;;;2.90;99.90;;;;;;4996105;28;20165;-68
2022/02/07 05:55:15;;;;;;;5.27;1.63;;;2.90;99.90;;;;;;4995376;28;20177;-67
2022/02/07 05:57:41;;;;;;;1.23;0.93;;;2.90;99.90;;;;;;4995688;28;20212;-70
2022/02/07 06:00:08;;;;;;;1.07;0.97;;;2.90;99.90;;;;;;4995422;28;20173;-68
2022/02/07 06:02:34;;;;;;;1.37;0.77;;;2.90;99.90;;;;;;4995495;28;20200;-68
2022/02/07 06:04:59;;;;;;;1.00;0.90;;;3.00;99.90;;;;;;4995414;28;20412;-68
2022/02/07 06:07:25;;;;;;;0.87;0.87;;;3.00;99.90;;;;;;4995380;28;20431;-67
2022/02/07 06:09:50;;;;;;;0.90;0.90;;;3.00;99.90;;;;;;4995322;28;20219;-68
2022/02/07 06:12:16;;;;;;;0.87;0.87;;;3.00;99.90;;;;;;4995405;28;20172;-68
2022/02/07 06:14:41;;;;;;;1.20;0.90;;;3.10;99.90;;;;;;4995638;28;20173;-69
2022/02/07 06:17:07;;;;;;;1.07;1.00;;;3.00;99.90;;;;;;4995535;28;20229;-69
2022/02/07 06:19:32;;;;;;;1.17;1.17;;;3.10;99.90;;;;;;4995270;28;20165;-69
2022/02/07 06:21:58;;;;;;;1.70;1.60;;;3.10;99.90;;;;;;4995190;28;20256;-69
2022/02/07 06:24:24;;;;;;;1.57;1.47;;;3.10;99.90;;;;;;4995025;28;20268;-69
2022/02/07 06:26:49;;;;;;;0.93;0.70;;;3.10;99.90;;;;;;4995532;28;20685;-69
2022/02/07 06:29:15;;;;;;;0.80;0.80;;;3.20;99.90;;;;;;4995011;28;20406;-69
2022/02/07 06:31:40;;;;;;;0.90;0.90;;;3.20;99.90;;;;;;4994826;28;20173;-68
2022/02/07 06:34:06;;;;;;;0.80;0.80;;;3.20;99.90;;;;;;4995070;28;20188;-69
2022/02/07 06:36:31;;;;;;;0.83;0.83;;;3.10;99.90;;;;;;4994756;28;20196;-69
2022/02/07 06:38:57;;;;;;;0.70;0.70;;;3.20;99.90;;;;;;4994616;28;20674;-69
2022/02/07 06:41:23;;;;;;;1.57;1.20;;;3.20;99.90;;;;;;4994974;28;20244;-68
2022/02/07 06:43:48;;;;;;;1.80;1.63;;;3.20;99.90;;;;;;4994843;28;20171;-69
2022/02/07 06:46:14;;;;;;;1.13;1.13;;;3.20;99.90;;;;;;4994470;28;20196;-68
2022/02/07 06:48:40;;;;;;;0.80;0.80;;;3.20;99.90;;;;;;4994592;28;20204;-68
2022/02/07 06:51:06;;;;;;;0.70;0.70;;;3.20;99.90;;;;;;4994516;28;20635;-69
2022/02/07 06:53:32;;;;;;;1.07;0.90;;;3.20;99.90;;;;;;4994597;28;20499;-67
2022/02/07 06:55:57;;;;;;;1.10;1.00;;;3.30;99.90;;;;;;4994548;28;20502;-68
2022/02/07 06:58:23;;;;;;;1.23;1.13;;;3.30;99.90;;;;;;4994547;28;20271;-68
2022/02/07 07:00:48;;;;;;;1.10;0.83;;;3.30;99.90;;;;;;4994678;28;20180;-69
2022/02/07 07:03:18;;;;;;;3.13;0.97;;;3.30;99.90;;;;;;4994880;28;20260;-68
2022/02/07 07:05:44;;;;;;;0.70;0.70;;;3.30;99.90;;;;;;4995101;28;20173;-68
2022/02/07 07:08:09;;;;;;;0.80;0.80;;;3.30;99.90;;;;;;4994873;28;20420;-68
2022/02/07 07:10:35;;;;;;;0.60;0.60;;;3.40;99.90;;;;;;4994222;28;20412;-69
2022/02/07 07:13:10;;;;;;;1.00;1.00;;;3.40;99.90;;;;;;4994689;28;20412;-68
2022/02/07 07:15:42;;;;;;;2.30;1.43;;;3.40;99.90;;;;;;4992845;28;20177;-68
2022/02/07 07:18:08;;;;;;;1.10;1.00;;;3.40;99.90;;;;;;4994161;28;20824;-70
2022/02/07 07:20:35;;;;;;;0.70;0.70;;;3.50;99.90;;;;;;4994422;28;20411;-68
2022/02/07 07:23:02;;;;;;;0.93;0.93;;;3.50;99.90;;;;;;4994347;28;20408;-71
2022/02/07 07:25:29;;;;;;;1.43;1.00;;;3.50;99.90;;;;;;4993837;28;20409;-68
2022/02/07 07:28:07;;;;;;;1.10;0.90;;;3.50;99.90;;;;;;4987652;28;20440;-69
2022/02/07 07:30:37;;;;;;;0.70;0.70;;;3.60;99.90;;;;;;4993593;28;20431;-68
2022/02/07 07:33:08;;;;;;;4.33;1.13;;;3.60;99.90;;;;;;4974314;28;20421;-67
2022/02/07 07:35:33;;;;;;;1.63;1.00;;;3.70;99.90;;;;;;4980570;28;20811;-68
2022/02/07 07:37:59;;;;;;;0.80;0.80;;;3.60;99.90;;;;;;4993622;28;20522;-68
2022/02/07 07:40:25;;;;;;;1.30;0.90;;;3.70;99.90;;;;;;4992276;28;20173;-69
2022/02/07 07:42:55;;;;;;;0.83;0.83;;;3.70;99.90;;;;;;4993849;28;20231;-67
2022/02/07 07:45:27;;;;;;;0.87;0.87;;;3.70;99.90;;;;;;4994061;28;20581;-69
2022/02/07 07:47:58;;;;;;;0.70;0.70;;;3.80;99.90;;;;;;4993243;28;20455;-69
2022/02/07 07:50:30;;;;;;;0.90;0.90;;;3.70;99.90;;;;;;4993465;28;20462;-68
2022/02/07 08:01:17;;;;;;;0.97;0.90;;;3.80;99.90;;;;;;4993301;28;20440;-69
2022/02/07 08:03:44;;;;;;;1.10;1.10;;;3.80;99.90;;;;;;5005475;28;20819;-69
2022/02/07 08:06:15;;;;;;;1.73;1.63;;;3.90;99.90;;;;;;5012926;28;20400;-69
2022/02/07 08:08:48;;;;;;;2.53;1.23;;;3.90;99.90;;;;;;5011270;28;20652;-70
2022/02/07 08:11:15;;;;;;;0.90;0.90;;;3.90;99.90;;;;;;5012824;28;20889;-69
2022/02/07 08:13:43;;;;;;;1.80;1.70;;;4.00;99.90;;;;;;4996471;28;20503;-69
2022/02/07 08:16:09;;;;;;;0.90;0.90;;;4.00;99.90;;;;;;4993235;28;20411;-69
2022/02/07 08:18:34;;;;;;;3.70;1.00;;;4.00;99.90;;;;;;4992681;28;20515;-69
2022/02/07 08:21:00;;;;;;;5.07;1.50;;;4.00;99.90;;;;;;4991612;28;20444;-69
2022/02/07 08:23:25;;;;;;;1.60;1.47;;;4.00;99.90;;;;;;4992662;28;20175;-68
2022/02/07 08:25:57;;;;;;;3.30;1.20;;;4.10;99.90;;;;;;4992967;28;20170;-70
2022/02/07 08:28:22;;;;;;;1.00;1.00;;;4.10;99.90;;;;;;4992625;28;20185;-69
2022/02/07 08:30:48;;;;;;;3.40;1.30;;;4.10;99.90;;;;;;4992777;28;20419;-67
2022/02/07 08:33:14;;;;;;;0.80;0.80;;;4.10;99.90;;;;;;4992421;28;20211;-68
2022/02/07 08:35:39;;;;;;;2.10;0.80;;;4.10;99.90;;;;;;4992528;28;20567;-67
2022/02/07 08:38:05;;;;;;;1.37;1.27;;;4.10;99.90;;;;;;4992136;28;20466;-68
2022/02/07 08:40:33;;;;;;;1.43;0.90;;;4.10;99.90;;;;;;4992506;28;20628;-69
2022/02/07 08:42:58;;;;;;;1.70;0.90;;;4.10;99.90;;;;;;4992266;28;20595;-69
2022/02/07 08:45:24;;;;;;;4.60;2.70;;;4.20;99.90;;;;;;4992316;28;20448;-68
2022/02/07 08:47:50;;;;;;;6.30;0.90;;;4.20;99.90;;;;;;4992131;28;20215;-68
2022/02/07 08:50:15;;;;;;;0.80;0.80;;;4.30;99.90;;;;;;4992357;28;20586;-68
2022/02/07 08:52:44;;;;;;;3.60;2.20;;;4.20;99.90;;;;;;4992000;28;20180;-69
2022/02/07 08:55:15;;;;;;;1.43;1.33;;;4.30;99.90;;;;;;4992391;28;20165;-69
2022/02/07 08:57:45;;;;;;;0.90;0.90;;;4.30;99.90;;;;;;4992233;28;20837;-69
2022/02/07 09:00:17;;;;;;;1.33;1.00;;;4.40;99.90;;;;;;4992490;28;20416;-68
2022/02/07 09:05:33;;;;;;;0.90;0.90;;;4.40;99.90;;;;;;4992161;28;20400;-68
2022/02/07 09:10:42;;;;;;;1.10;0.87;;;4.50;99.90;;;;;;4992167;28;20411;-69
2022/02/07 09:13:08;;;;;;;1.63;1.03;;;4.50;99.90;;;;;;4991966;28;20431;-68
2022/02/07 09:18:07;;;;;;;0.97;0.97;;;4.50;99.90;;;;;;4992109;28;20624;-68
2022/02/07 09:20:36;;;;;;;1.83;1.17;;;4.60;99.90;;;;;;4992259;28;20423;-68
2022/02/07 09:23:04;;;;;;;0.70;0.70;;;4.80;99.90;;;;;;4992020;28;20413;-69
2022/02/07 09:25:30;;;;;;;0.97;0.90;;;4.80;99.90;;;;;;4992121;28;20728;-68
2022/02/07 09:27:55;;;;;;;1.03;0.93;;;4.70;99.90;;;;;;4991817;28;20442;-68
2022/02/07 09:30:22;;;;;;;1.33;0.93;;;4.70;99.90;;;;;;4992014;28;20196;-69
2022/02/07 09:32:47;;;;;;;1.23;0.90;;;4.90;99.90;;;;;;4992445;28;20544;-69
2022/02/07 09:35:13;;;;;;;0.80;0.80;;;4.80;99.90;;;;;;4992231;28;20424;-69
2022/02/07 09:37:39;;;;;;;1.53;1.13;;;4.80;99.90;;;;;;4992199;28;20209;-69
2022/02/07 09:40:06;;;;;;;0.70;0.70;;;4.70;99.90;;;;;;4991997;28;20188;-69
2022/02/07 09:42:34;;;;;;;1.03;1.00;;;4.80;99.90;;;;;;4992186;28;20172;-69
2022/02/07 09:45:10;;;;;;;2.90;1.00;;;4.80;99.90;;;;;;4992148;28;20408;-68
2022/02/07 09:47:38;;;;;;;3.63;1.10;;;4.80;99.90;;;;;;4992298;28;20531;-69
2022/02/07 09:50:06;;;;;;;7.03;1.93;;;4.90;99.90;;;;;;4992273;28;20420;-69
2022/02/07 09:52:31;;;;;;;1.67;1.03;;;4.90;99.90;;;;;;4991806;28;20411;-70
2022/02/07 09:54:57;;;;;;;4.97;0.80;;;4.90;99.90;;;;;;4991006;28;20405;-68
2022/02/07 09:57:22;;;;;;;1.67;1.10;;;4.90;99.90;;;;;;4991357;28;20216;-68
2022/02/07 09:59:50;;;;;;;1.20;1.20;;;5.10;99.90;;;;;;4991266;28;20201;-67
2022/02/07 10:02:24;;;;;;;3.63;1.10;;;5.10;99.90;;;;;;4991538;28;20173;-67
2022/02/07 10:04:51;;;;;;;3.80;1.00;;;5.20;99.90;;;;;;4991379;28;20919;-68
2022/02/07 10:15:50;;;;;;;0.67;0.67;;;5.60;99.90;;;;;;4985542;28;20415;-69
2022/02/07 10:43:29;;;;;;;1.47;1.10;;;6.10;99.90;;;;;;4994088;28;20541;-68
2022/02/07 10:46:19;;;;;;;1.20;0.83;;;5.90;99.90;;;;;;4993149;28;20416;-68
2022/02/07 10:48:51;;;;;;;2.20;1.30;;;6.00;99.90;;;;;;4963596;28;20463;-68
2022/02/07 10:51:20;;;;;;;1.43;1.17;;;6.20;99.90;;;;;;4994111;28;20487;-68
2022/02/07 10:53:52;;;;;;;1.80;1.20;;;6.40;99.90;;;;;;4993870;28;20921;-68
2022/02/07 10:56:20;;;;;;;6.27;1.93;;;6.30;99.90;;;;;;4994264;28;20463;-71
2022/02/07 10:58:50;;;;;;;3.53;1.23;;;6.30;99.90;;;;;;4994604;28;20436;-71
2022/02/07 11:01:21;;;;;;;6.63;2.60;;;6.50;99.90;;;;;;4994242;28;20423;-71
2022/02/07 11:03:54;;;;;;;2.20;1.07;;;6.50;99.90;;;;;;4994097;28;20408;-68
2022/02/07 11:06:28;;;;;;;6.03;1.30;;;6.30;99.90;;;;;;4994248;28;20415;-68
2022/02/07 11:19:44;;;;;;;0.80;0.80;;;6.30;99.90;;;;;;4994296;28;20569;-68
2022/02/07 11:27:34;;;;;;;5.60;1.37;;;6.60;99.90;;;;;;4994189;28;20427;-68
2022/02/07 11:30:06;;;;;;;5.40;1.70;;;6.70;99.90;;;;;;4993776;28;20444;-68
2022/02/07 11:32:44;;;;;;;1.27;1.00;;;6.60;99.90;;;;;;4992562;28;20503;-69
2022/02/07 11:35:48;;;;;;;0.70;0.70;;;6.70;99.90;;;;;;4993848;28;20436;-69
2022/02/07 11:38:18;;;;;;;9.30;0.93;;;6.60;99.90;;;;;;4994240;28;20466;-69
2022/02/07 11:41:04;;;;;;;3.80;1.47;;;6.60;99.90;;;;;;4993458;28;21084;-67
2022/02/07 11:43:35;;;;;;;2.70;1.23;;;6.60;99.90;;;;;;4993395;28;20419;-69
2022/02/07 11:46:09;;;;;;;3.97;1.23;;;6.70;99.90;;;;;;4993663;28;20412;-68
2022/02/07 11:49:06;;;;;;;1.67;1.57;;;6.50;99.90;;;;;;4993784;28;20503;-68
2022/02/07 11:51:37;;;;;;;0.90;0.90;;;6.50;99.90;;;;;;4981301;28;20507;-67
2022/02/07 11:54:06;;;;;;;2.27;1.10;;;6.50;99.90;;;;;;4993751;28;20442;-68
2022/02/07 11:56:47;;;;;;;1.47;1.37;;;6.50;99.90;;;;;;4993504;28;20502;-67
2022/02/07 11:59:28;;;;;;;8.70;1.23;;;6.50;99.90;;;;;;4993793;28;20736;-67
2022/02/07 12:02:33;;;;;;;1.13;1.03;;;6.50;99.90;;;;;;4993368;28;20479;-67
2022/02/07 12:04:59;;;;;;;1.53;1.20;;;6.40;99.90;;;;;;4987911;28;20424;-67
2022/02/07 12:07:31;;;;;;;4.60;1.90;;;6.60;99.90;;;;;;4993408;28;20495;-67
2022/02/07 12:12:41;;;;;;;1.83;1.63;;;6.50;99.90;;;;;;4993619;28;20432;-67
2022/02/07 12:15:13;;;;;;;1.13;1.03;;;6.50;99.90;;;;;;4993491;28;20439;-67
2022/02/07 12:17:40;;;;;;;3.37;1.13;;;6.50;99.90;;;;;;4993244;28;20549;-66
2022/02/07 12:20:08;;;;;;;1.40;1.07;;;6.50;99.90;;;;;;4992937;28;20405;-68
2022/02/07 12:23:05;;;;;;;5.30;2.90;;;6.40;99.90;;;;;;4992711;28;20504;-67
2022/02/07 12:25:37;;;;;;;6.43;0.93;;;6.20;99.90;;;;;;4993345;28;20392;-68
2022/02/07 12:28:07;;;;;;;3.53;1.53;;;6.40;99.90;;;;;;4993107;28;20432;-67
2022/02/07 12:33:12;;;;;;;1.30;1.20;;;6.50;99.90;;;;;;4973701;28;20405;-68
2022/02/07 12:35:37;;;;;;;2.60;1.50;;;6.40;99.90;;;;;;4981419;28;20404;-68
2022/02/07 12:38:04;;;;;;;4.03;1.47;;;6.40;99.90;;;;;;4992484;28;20919;-67
2022/02/07 12:40:30;;;;;;;6.60;2.20;;;6.30;99.90;;;;;;4992555;28;20189;-67
2022/02/07 12:42:56;;;;;;;4.30;1.70;;;6.30;99.90;;;;;;4992048;28;20409;-67
2022/02/07 12:45:29;;;;;;;2.90;2.20;;;6.40;99.90;;;;;;4992830;28;20176;-67
2022/02/07 12:47:56;;;;;;;6.97;3.67;;;6.60;99.90;;;;;;4992157;28;20204;-67
2022/02/07 12:50:26;;;;;;;8.80;2.30;;;6.70;99.90;;;;;;4991873;28;20887;-67
2022/02/07 12:52:54;;;;;;;1.70;1.60;;;7.10;99.90;;;;;;4992760;28;20467;-67
2022/02/07 12:55:20;;;;;;;1.40;1.10;;;6.90;99.90;;;;;;4992192;28;20435;-66
2022/02/07 12:57:45;;;;;;;2.07;1.23;;;6.70;99.90;;;;;;4991949;28;20514;-67
2022/02/07 13:00:14;;;;;;;3.33;1.23;;;6.50;99.90;;;;;;4992202;28;20173;-67
2022/02/07 13:02:42;;;;;;;3.33;1.00;;;6.60;99.90;;;;;;4992217;28;20231;-67
2022/02/07 13:05:13;;;;;;;2.60;1.20;;;6.70;99.90;;;;;;4992069;28;20404;-67
2022/02/07 13:07:46;;;;;;;3.70;1.37;;;6.70;99.90;;;;;;4992145;28;20467;-67
2022/02/07 13:10:14;;;;;;;10.27;2.13;;;6.90;99.90;;;;;;4992332;28;20424;-67
2022/02/07 13:15:23;;;;;;;6.77;1.83;;;6.90;99.90;;;;;;5012204;28;20884;-66
2022/02/07 13:17:52;;;;;;;2.27;1.50;;;6.90;99.90;;;;;;5010193;28;20455;-66
2022/02/07 13:20:20;;;;;;;32.93;13.13;;;7.00;99.90;;;;;;5011783;28;20384;-67
2022/02/07 13:22:47;;;;;;;12.43;6.20;;;7.10;99.90;;;;;;5010021;28;20458;-67
2022/02/07 13:25:13;;;;;;;5.13;1.50;;;7.10;99.90;;;;;;5008500;28;20411;-68
2022/02/07 13:27:40;;;;;;;17.80;3.77;;;7.00;99.90;;;;;;5002362;28;20818;-67
2022/02/07 13:30:11;;;;;;;21.67;10.10;;;7.00;99.90;;;;;;4992148;28;20452;-67
2022/02/07 13:32:37;;;;;;;3.83;2.27;;;8.20;99.90;;;;;;4992040;28;20907;-68
2022/02/07 13:35:13;;;;;;;2.47;1.60;;;7.90;99.90;;;;;;4991650;28;20416;-67
2022/02/07 13:37:41;;;;;;;5.57;2.90;;;7.50;99.90;;;;;;4992029;28;20451;-67
2022/02/07 13:40:17;;;;;;;4.97;2.83;;;7.60;99.90;;;;;;4992224;28;21009;-68
2022/02/07 13:42:46;;;;;;;2.67;1.93;;;7.50;99.90;;;;;;4992371;28;20423;-68
2022/02/07 13:45:16;;;;;;;2.90;1.20;;;7.20;99.90;;;;;;4992384;28;20425;-67
2022/02/07 13:47:49;;;;;;;5.80;2.90;;;7.40;99.90;;;;;;4992172;28;20447;-67
2022/02/07 13:50:19;;;;;;;1.53;1.40;;;7.40;99.90;;;;;;4992333;28;20937;-68
2022/02/07 13:52:46;;;;;;;1.33;1.23;;;7.10;99.90;;;;;;4992340;28;20388;-74
2022/02/07 13:55:52;;;;;;;3.13;1.10;;;6.80;99.90;;;;;;4993080;28;20412;-69
2022/02/07 13:58:37;;;;;;;3.70;1.07;;;6.20;99.90;;;;;;4935377;29;21205;-69
2022/02/07 14:01:04;;;;;;;4.43;1.00;;;5.90;99.90;;;;;;4935318;29;20431;-68
2022/02/07 14:03:37;;;;;;;6.10;1.43;;;5.50;99.90;;;;;;4972389;28;20412;-68
2022/02/07 14:06:16;;;;;;;1.23;1.03;;;5.50;99.90;;;;;;4995826;28;20415;-69
2022/02/07 14:08:46;;;;;;;1.20;1.10;;;5.40;99.90;;;;;;4995766;28;20431;-69
2022/02/07 14:11:37;;;;;;;1.53;1.23;;;5.40;99.90;;;;;;4995694;28;20424;-69
2022/02/07 14:14:05;;;;;;;8.13;2.10;;;5.30;99.90;;;;;;4994162;28;20427;-68
2022/02/07 14:16:31;;;;;;;1.33;1.17;;;5.40;99.90;;;;;;4995355;28;20451;-67
2022/02/07 14:18:56;;;;;;;1.80;1.17;;;5.50;99.90;;;;;;4995217;28;20431;-67
2022/02/07 14:21:26;;;;;;;2.87;1.00;;;5.40;99.90;;;;;;4995247;28;20473;-67
2022/02/07 14:23:53;;;;;;;1.93;1.40;;;5.40;99.90;;;;;;4995550;28;20177;-68
2022/02/07 14:26:21;;;;;;;4.60;1.27;;;5.40;99.90;;;;;;4995448;28;20766;-67
2022/02/07 14:28:53;;;;;;;1.30;1.20;;;5.40;99.90;;;;;;4995452;28;20431;-67
2022/02/07 14:31:19;;;;;;;4.30;2.20;;;5.40;99.90;;;;;;4995273;28;20407;-68
2022/02/07 14:33:46;;;;;;;1.10;0.70;;;5.20;99.90;;;;;;4995101;28;20419;-68
2022/02/07 14:36:11;;;;;;;2.33;1.50;;;4.90;99.90;;;;;;4995954;28;20487;-68
2022/02/07 14:38:37;;;;;;;5.97;1.37;;;4.90;99.90;;;;;;4998635;28;20930;-68
2022/02/07 14:41:09;;;;;;;1.40;1.17;;;4.90;99.90;;;;;;4996620;28;20177;-67
2022/02/07 14:43:34;;;;;;;5.23;1.00;;;4.80;99.90;;;;;;4995172;28;20381;-67
2022/02/07 14:48:30;;;;;;;1.00;0.90;;;4.80;99.90;;;;;;4994654;28;20229;-67
2022/02/07 14:50:56;;;;;;;1.80;0.93;;;4.90;99.90;;;;;;4994647;28;20481;-66
2022/02/07 14:53:22;;;;;;;1.00;0.90;;;4.80;99.90;;;;;;4994633;28;20436;-66
2022/02/07 14:55:48;;;;;;;5.63;1.10;;;4.80;99.90;;;;;;4994949;28;20852;-67
2022/02/07 14:58:14;;;;;;;0.77;0.77;;;4.80;99.90;;;;;;5002175;28;20890;-67
2022/02/07 15:00:39;;;;;;;4.93;1.07;;;4.80;99.90;;;;;;4994219;28;20486;-66
2022/02/07 15:03:06;;;;;;;4.83;1.20;;;4.80;99.90;;;;;;4994772;28;20656;-66
2022/02/07 15:05:34;;;;;;;1.60;1.50;;;4.80;99.90;;;;;;4994627;28;20173;-66
2022/02/07 15:08:00;;;;;;;1.83;0.90;;;4.80;99.90;;;;;;4994235;28;20439;-66
2022/02/07 15:10:26;;;;;;;4.10;1.10;;;4.80;99.90;;;;;;4994764;28;20412;-66
2022/02/07 15:12:52;;;;;;;1.10;0.97;;;4.80;99.90;;;;;;4994462;28;20227;-66
2022/02/07 15:15:18;;;;;;;5.13;1.43;;;4.80;99.90;;;;;;4994336;28;20412;-68
2022/02/07 15:17:44;;;;;;;2.27;2.00;;;4.90;99.90;;;;;;4994201;28;20698;-66
2022/02/07 15:20:12;;;;;;;3.63;1.20;;;4.90;99.90;;;;;;4994287;28;20496;-67
2022/02/07 15:22:40;;;;;;;1.27;1.20;;;5.00;99.90;;;;;;4994373;28;20899;-67
2022/02/07 15:25:07;;;;;;;1.67;1.20;;;5.00;99.90;;;;;;4994575;28;20506;-67
2022/02/07 15:27:33;;;;;;;2.10;1.87;;;5.00;99.90;;;;;;4994078;28;20930;-66
2022/02/07 15:29:59;;;;;;;1.97;1.00;;;5.00;99.90;;;;;;4993811;28;20427;-67
2022/02/07 15:32:28;;;;;;;1.10;0.87;;;5.10;99.90;;;;;;4994212;28;20177;-66
2022/02/07 15:35:00;;;;;;;1.20;1.10;;;5.20;99.90;;;;;;4993970;28;20419;-67
2022/02/07 15:37:27;;;;;;;2.03;1.20;;;5.20;99.90;;;;;;4993715;28;20554;-66
2022/02/07 15:39:53;;;;;;;4.50;1.43;;;5.30;99.90;;;;;;4993784;28;20423;-65